PHMKPHNY

Guest
Details From PHMK - MOLOKAI
To PHNY - LANAI
Flight Number -
Tags generated
Created
Modified
Stats Distance 26 nm / 48 km
Max Altitude 300 ft / 91 m
Waypoints 3
Social Downloads 1
Likes 0
Share VATSIM

Download

Looking for another format? Having issues loading an existing format? Contact us
Advertisement - Login to hide

Notes

Basic altitude profile: - Ascent Rate: 2500ft/min - Ascent Speed: 250kts - Cruise Altitude: 35000ft - Cruise Speed: 420kts - Descent Rate: 1500ft/min - Descent Speed: 250kts Options: - Use NATs: yes - Use PACOTS: yes - Use low airways: yes - Use high airways: yes

Route

PHMK LNY PHNY

ID Type Via Altitude Latitude Longitude Leg Dist Tot Dist Heading (true) Name
O PHMK APT - 0 ft / 0 m 21.15293˚ -157.09650˚ - 0 nm - MOLOKAI
LNY VOR - 300 ft / 91 m 20.76450˚ -156.96889˚ 24 nm 24 nm 163° / 163° LANAI VORTAC
O PHNY APT - 0 ft / 0 m 20.78564˚ -156.95147˚ 1 nm 26 nm 38° / 38° LANAI

Altitude Profile

Advertisement - Login to hide

PHMK

Details ICAO PHMK (MKK)
Name MOLOKAI
Region USA (Hawaii)
Timezone Pacific/Honolulu (UTC-10.0)
Stats Elevation 454 ft / 138 m (AMSL)
Location 21.152926° -157.096500°
Runways 2
Magnetic Variation 9.500° E

METAR

PHMK 271954Z 03010G19KT 10SM FEW040 27/19 A3003 RMK AO2 SLP172 T02720189

Decode

TAF

PHMK 271739Z 2718/2818 05008KT P6SM VCSH FEW020 SCT040 BKN250 FM272000 04014G22KT P6SM SCT025 BKN250 FM280600 04009KT P6SM FEW020 SCT040 BKN250

Decode

Departure Runways

ID Width Length Bearing (true) Bearing (mag) Surface Threshold Offset Overrun Length
05 100 ft / 30 m 4,503 ft / 1,373 m 60.21° 50.71° Asphalt 0 ft / 0 m 0 ft / 0 m
17 100 ft / 30 m 3,130 ft / 954 m 179.90° 170.40° Asphalt 427 ft / 130 m 0 ft / 0 m
23 100 ft / 30 m 4,503 ft / 1,373 m 240.21° 230.71° Asphalt 0 ft / 0 m 0 ft / 0 m
35 100 ft / 30 m 3,130 ft / 954 m 359.90° 350.40° Asphalt 0 ft / 0 m 0 ft / 0 m

PHNY

Details ICAO PHNY (LNY)
Name LANAI
Region USA (Hawaii)
Timezone Pacific/Honolulu (UTC-10.0)
Stats Elevation 1,308 ft / 399 m (AMSL)
Location 20.785642° -156.951465°
Runways 1
Magnetic Variation 9.473° E

METAR

PHNY 271956Z AUTO 08004KT 10SM OVC020 24/19 A3007 RMK AO2 SLP163 T02390189

Decode

TAF

TAF PHNY 271739Z 2718/2818 VRB05KT P6SM SCT015 SCT025 BKN250 FM272000 23007KT P6SM VCSH SCT015 BKN025 FM280300 04011KT P6SM SCT025 BKN250 FM280700 04007KT P6SM FEW015 SCT025

Decode

Destination Runways

ID Width Length Bearing (true) Bearing (mag) Surface Threshold Offset Overrun Length
03 150 ft / 46 m 5,013 ft / 1,528 m 43.85° 34.38° Asphalt 0 ft / 0 m 0 ft / 0 m
21 150 ft / 46 m 5,013 ft / 1,528 m 223.85° 214.38° Asphalt 0 ft / 0 m 0 ft / 0 m

Approach Navaids

Runway Type Ident Frequency Range Bearing (true) Bearing (mag) Slope Elevation
03 Localiser ILNY 111.10 MHz 18 nm / 33 km 44.06° 34.59° - 1,308 ft / 399 m (AMSL)
03 Glidescope ILNY 111.10 MHz 10 nm / 19 km 43.85° 34.38° 3.00° 1,304 ft / 397 m (AMSL)

Popular Alternatives